createdAt,value
2018-08-11T00:02:07.057Z,101628.53
2018-08-11T00:04:45.593Z,101621.16
2018-08-11T00:07:20.494Z,101617.86
2018-08-11T00:09:53.180Z,101611.00
2018-08-11T00:12:25.457Z,101603.05
2018-08-11T00:14:58.965Z,101600.03
2018-08-11T00:17:32.688Z,101601.20
2018-08-11T00:20:13.688Z,101592.03
2018-08-11T00:22:49.760Z,101591.27
2018-08-11T00:25:20.317Z,101589.21
2018-08-11T00:27:52.153Z,101578.73
2018-08-11T00:30:31.401Z,101572.19
2018-08-11T00:33:07.985Z,101570.62
2018-08-11T00:35:43.713Z,101563.22
2018-08-11T00:38:21.042Z,101567.36
2018-08-11T00:41:20.383Z,101559.28
2018-08-11T00:44:01.893Z,101557.59
2018-08-11T00:46:38.571Z,101558.61
2018-08-11T00:49:17.367Z,101556.30
2018-08-11T00:55:09.532Z,101548.47
2018-08-11T00:57:49.812Z,101550.93
2018-08-11T01:00:23.334Z,101548.56
2018-08-11T01:02:56.765Z,101550.86
2018-08-11T01:05:27.525Z,101549.76
2018-08-11T01:07:59.038Z,101544.15
2018-08-11T01:10:31.498Z,101541.21
2018-08-11T01:13:03.616Z,101543.53
2018-08-11T01:15:35.830Z,101533.52
2018-08-11T01:18:09.718Z,101540.48
2018-08-11T01:20:41.647Z,101530.06
2018-08-11T01:23:17.897Z,101525.31
2018-08-11T01:25:54.450Z,101519.25
2018-08-11T01:28:27.230Z,101523.69
2018-08-11T01:30:59.639Z,101512.72
2018-08-11T01:33:33.580Z,101512.05
2018-08-11T01:36:04.779Z,101501.09
2018-08-11T01:38:39.165Z,101499.99
2018-08-11T01:41:11.730Z,101488.71
2018-08-11T01:43:45.724Z,101491.52
2018-08-11T01:46:21.366Z,101489.70
2018-08-11T01:48:56.918Z,101488.64
2018-08-11T01:51:33.692Z,101490.66
2018-08-11T01:54:10.635Z,101483.20
2018-08-11T01:56:45.517Z,101490.97
2018-08-11T01:59:16.978Z,101481.48
2018-08-11T02:01:50.053Z,101483.79
2018-08-11T02:04:22.206Z,101474.02
2018-08-11T02:06:58.508Z,101472.27
2018-08-11T02:09:33.397Z,101468.11
2018-08-11T02:12:05.862Z,101469.00
2018-08-11T02:14:38.290Z,101466.66
2018-08-11T02:17:10.645Z,101464.75
2018-08-11T02:19:43.169Z,101475.48
2018-08-11T02:22:16.347Z,101469.37
2018-08-11T02:24:50.672Z,101471.07
2018-08-11T02:27:22.269Z,101469.56
2018-08-11T02:29:54.761Z,101473.45
2018-08-11T02:35:30.680Z,101458.76
2018-08-11T02:38:06.405Z,101464.59
2018-08-11T02:40:46.073Z,101473.68
2018-08-11T02:43:19.045Z,101474.77
2018-08-11T02:45:52.676Z,101475.83
2018-08-11T02:48:29.646Z,101474.81
2018-08-11T02:50:59.410Z,101475.17
2018-08-11T02:53:31.633Z,101478.24
2018-08-11T02:56:01.359Z,101472.37
2018-08-11T02:58:36.610Z,101464.14
2018-08-11T03:01:10.426Z,101468.17
2018-08-11T03:03:45.805Z,101467.97
2018-08-11T03:06:20.345Z,101472.92
2018-08-11T03:08:53.926Z,101481.18
2018-08-11T03:11:25.516Z,101477.37
2018-08-11T03:14:05.542Z,101474.11
2018-08-11T03:16:41.929Z,101476.77
2018-08-11T03:19:14.131Z,101472.60
2018-08-11T03:21:47.900Z,101468.73
2018-08-11T03:24:20.409Z,101462.78
2018-08-11T03:26:56.421Z,101469.70
2018-08-11T03:29:34.708Z,101464.59
2018-08-11T03:32:08.507Z,101468.45
2018-08-11T03:34:42.921Z,101455.59
2018-08-11T03:37:15.284Z,101459.99
2018-08-11T03:39:48.771Z,101452.77
2018-08-11T03:42:26.109Z,101448.92
2018-08-11T03:47:36.359Z,101446.77
2018-08-11T03:50:10.891Z,101440.75
2018-08-11T03:52:45.446Z,101440.20
2018-08-11T03:55:22.762Z,101453.47
2018-08-11T03:57:55.413Z,101444.46
2018-08-11T04:03:08.074Z,101430.28
2018-08-11T04:05:41.112Z,101439.90
2018-08-11T04:08:15.488Z,101437.59
2018-08-11T04:10:47.121Z,101451.35
2018-08-11T04:13:19.247Z,101455.32
2018-08-11T04:15:51.457Z,101450.91
2018-08-11T04:18:23.573Z,101455.31
2018-08-11T04:20:55.019Z,101455.67
2018-08-11T04:23:25.949Z,101459.17
2018-08-11T04:25:58.385Z,101469.04
2018-08-11T04:28:37.953Z,101477.08
2018-08-11T04:31:09.857Z,101486.11
2018-08-11T04:33:43.511Z,101489.48
2018-08-11T04:36:16.844Z,101495.61
2018-08-11T04:41:31.924Z,101502.94
2018-08-11T04:44:09.399Z,101505.09
2018-08-11T04:46:41.339Z,101503.92
2018-08-11T04:49:13.130Z,101502.98
2018-08-11T04:51:44.286Z,101501.06
2018-08-11T04:54:15.409Z,101498.90
2018-08-11T04:56:45.967Z,101508.29
2018-08-11T04:59:16.617Z,101508.83
2018-08-11T05:01:47.803Z,101504.12
2018-08-11T05:04:18.082Z,101501.05
2018-08-11T05:06:50.404Z,101502.41
2018-08-11T05:09:22.225Z,101496.54
2018-08-11T05:11:52.471Z,101499.86
2018-08-11T05:14:22.656Z,101496.84
2018-08-11T05:16:52.778Z,101494.31
2018-08-11T05:19:24.760Z,101488.36
2018-08-11T05:21:55.379Z,101492.80
2018-08-11T05:24:28.605Z,101492.81
2018-08-11T05:27:05.180Z,101498.91
2018-08-11T05:29:39.949Z,101491.95
2018-08-11T05:32:10.348Z,101489.86
2018-08-11T05:34:43.396Z,101488.45
2018-08-11T05:37:17.832Z,101491.61
2018-08-11T05:39:51.868Z,101493.99
2018-08-11T05:42:25.028Z,101502.25
2018-08-11T05:45:00.035Z,101502.16
2018-08-11T05:47:34.043Z,101506.92
2018-08-11T05:50:07.737Z,101507.80
2018-08-11T05:52:40.771Z,101506.69
2018-08-11T05:55:10.541Z,101514.33
2018-08-11T05:57:41.672Z,101485.91
2018-08-11T06:00:14.526Z,101492.80
2018-08-11T06:02:47.632Z,101494.16
2018-08-11T06:05:20.036Z,101504.80
2018-08-11T06:07:49.792Z,101497.72
2018-08-11T06:10:20.063Z,101508.36
2018-08-11T06:12:49.932Z,101511.62
2018-08-11T06:15:25.519Z,101495.98
2018-08-11T06:17:59.932Z,101494.47
2018-08-11T06:20:33.332Z,101496.69
2018-08-11T06:23:05.091Z,101494.33
2018-08-11T06:25:36.298Z,101489.64
2018-08-11T06:28:09.316Z,101500.99
2018-08-11T06:30:39.582Z,101493.92
2018-08-11T06:33:13.544Z,101501.85
2018-08-11T06:35:44.846Z,101503.19
2018-08-11T06:38:16.555Z,101486.37
2018-08-11T06:40:48.314Z,101493.92
2018-08-11T06:43:19.546Z,101495.03
2018-08-11T06:45:50.532Z,101492.63
2018-08-11T06:49:13.808Z,101488.73
2018-08-11T06:51:44.075Z,101490.85
2018-08-11T06:54:14.918Z,101499.30
2018-08-11T06:56:45.363Z,101493.27
2018-08-11T06:59:17.054Z,101499.23
2018-08-11T07:01:47.721Z,101486.88
2018-08-11T07:04:18.095Z,101489.13
2018-08-11T07:06:49.865Z,101503.03
2018-08-11T07:09:21.393Z,101495.34
2018-08-11T07:11:53.599Z,101495.39
2018-08-11T07:14:24.875Z,101491.80
2018-08-11T07:16:55.874Z,101497.51
2018-08-11T07:19:26.444Z,101485.95
2018-08-11T07:22:00.877Z,101490.18
2018-08-11T07:24:31.275Z,101484.34
2018-08-11T07:27:05.462Z,101476.97
2018-08-11T07:29:36.487Z,101483.20
2018-08-11T07:32:09.070Z,101467.52
2018-08-11T07:34:40.460Z,101465.53
2018-08-11T07:37:14.582Z,101474.63
2018-08-11T07:39:46.847Z,101469.52
2018-08-11T07:42:18.652Z,101467.73
2018-08-11T07:44:50.075Z,101470.63
2018-08-11T07:47:21.228Z,101475.75
2018-08-11T07:49:52.142Z,101487.64
2018-08-11T07:52:23.160Z,101487.56
2018-08-11T07:54:54.746Z,101478.02
2018-08-11T07:58:22.552Z,101480.84
2018-08-11T08:01:01.809Z,101470.05
2018-08-11T08:06:59.565Z,101459.83
2018-08-11T08:10:18.441Z,101476.59
2018-08-11T08:19:20.329Z,101476.59
2018-08-11T08:21:52.257Z,101478.42
2018-08-11T08:31:44.477Z,101464.78
2018-08-11T08:34:36.177Z,101466.59
2018-08-11T09:34:00.077Z,101474.84
2018-08-11T09:36:33.248Z,101474.02
2018-08-11T09:39:08.308Z,101466.89
2018-08-11T10:15:34.347Z,101420.16
2018-08-11T10:18:26.193Z,101438.92
2018-08-11T10:24:14.130Z,101431.34
2018-08-11T11:01:50.032Z,101411.65
2018-08-11T11:18:41.903Z,101412.47
2018-08-11T11:25:15.756Z,101400.20
2018-08-11T11:28:11.807Z,101433.78
2018-08-11T11:30:43.287Z,101436.02
2018-08-11T11:33:30.810Z,101445.88
2018-08-11T11:36:12.426Z,101445.20
2018-08-11T11:52:19.371Z,101458.45
2018-08-11T11:54:54.238Z,101457.24
2018-08-11T11:57:42.876Z,101455.92
2018-08-11T12:00:21.662Z,101451.60
2018-08-11T12:03:02.774Z,101458.98
2018-08-11T12:05:43.218Z,101454.69
2018-08-11T12:08:23.644Z,101452.38
2018-08-11T12:10:59.113Z,101461.50
2018-08-11T12:13:43.630Z,101455.06
2018-08-11T12:19:17.504Z,101463.75
2018-08-11T12:22:43.999Z,101468.66
2018-08-11T12:49:04.663Z,101426.09
2018-08-11T12:51:39.941Z,101419.80
2018-08-11T12:54:16.491Z,101418.27
2018-08-11T12:56:52.760Z,101421.39
2018-08-11T12:59:25.852Z,101418.34
2018-08-11T13:02:01.683Z,101423.37
2018-08-11T13:04:45.895Z,101437.63
2018-08-11T13:07:20.867Z,101429.65
2018-08-11T13:09:54.805Z,101447.08
2018-08-11T13:12:25.923Z,101448.72
2018-08-11T13:17:57.751Z,101490.68
2018-08-11T13:20:30.810Z,101493.23
2018-08-11T13:23:46.067Z,101499.24
2018-08-11T13:27:02.787Z,101517.70
2018-08-11T13:29:49.037Z,101519.59
2018-08-11T13:33:20.962Z,101503.15
2018-08-11T13:36:10.216Z,101503.19
2018-08-11T13:38:46.880Z,101508.16
2018-08-11T13:41:31.212Z,101517.27
2018-08-11T13:44:13.535Z,101507.27
2018-08-11T13:46:48.033Z,101500.30
2018-08-11T13:49:24.531Z,101492.61
2018-08-11T13:51:58.300Z,101491.91
2018-08-11T13:54:41.439Z,101480.47
2018-08-11T13:57:20.058Z,101486.17
2018-08-11T13:59:54.002Z,101471.33
2018-08-11T14:02:25.389Z,101475.22
2018-08-11T14:05:01.364Z,101466.80
2018-08-11T14:07:32.108Z,101467.75
2018-08-11T14:10:02.428Z,101489.61
2018-08-11T14:12:33.747Z,101474.82
2018-08-11T14:15:10.024Z,101479.02
2018-08-11T14:17:44.395Z,101469.24
2018-08-11T14:20:15.587Z,101475.13
2018-08-11T14:22:46.215Z,101472.67
2018-08-11T14:25:16.921Z,101478.41
2018-08-11T14:27:51.860Z,101482.91
2018-08-11T14:30:22.964Z,101493.12
2018-08-11T14:32:54.244Z,101491.45
2018-08-11T14:35:25.638Z,101491.78
2018-08-11T14:38:03.560Z,101505.75
2018-08-11T14:40:36.891Z,101500.55
2018-08-11T14:43:07.994Z,101502.98
2018-08-11T14:45:43.111Z,101495.45
2018-08-11T14:48:17.833Z,101488.98
2018-08-11T14:50:58.783Z,101481.33
2018-08-11T14:53:32.728Z,101495.14
2018-08-11T14:56:08.083Z,101498.69
2018-08-11T14:58:39.718Z,101497.39
2018-08-11T15:01:12.660Z,101509.54
2018-08-11T15:03:45.399Z,101503.89
2018-08-11T15:06:21.014Z,101510.68
2018-08-11T15:08:53.359Z,101510.64
2018-08-11T15:11:27.360Z,101519.97
2018-08-11T15:14:07.006Z,101512.62
2018-08-11T15:19:19.739Z,101518.27
2018-08-11T15:21:49.666Z,101517.94
2018-08-11T15:24:19.994Z,101509.84
2018-08-11T15:27:26.398Z,101526.08
2018-08-11T15:29:58.607Z,101526.08
2018-08-11T15:32:29.697Z,101530.03
2018-08-11T15:35:02.739Z,101533.72
2018-08-11T15:37:33.268Z,101524.49
2018-08-11T15:40:08.867Z,101538.90
2018-08-11T15:42:42.141Z,101533.36
2018-08-11T15:45:16.013Z,101534.28
2018-08-11T15:47:50.881Z,101543.16
2018-08-11T15:50:21.787Z,101545.70
2018-08-11T15:52:53.379Z,101554.81
2018-08-11T15:55:24.996Z,101555.88
2018-08-11T15:57:56.968Z,101549.67
2018-08-11T16:00:28.726Z,101554.77
2018-08-11T16:03:07.671Z,101554.59
2018-08-11T16:05:40.220Z,101566.50
2018-08-11T16:08:16.786Z,101565.23
2018-08-11T16:10:55.649Z,101578.48
2018-08-11T16:13:26.767Z,101572.06
2018-08-11T16:15:59.710Z,101571.56
2018-08-11T16:18:45.828Z,101574.42
2018-08-11T16:21:22.022Z,101578.73
2018-08-11T16:24:02.419Z,101584.14
2018-08-11T16:26:37.766Z,101585.31
2018-08-11T16:29:12.962Z,101587.53
2018-08-11T16:31:44.720Z,101596.95
2018-08-11T16:34:18.225Z,101593.75
2018-08-11T16:36:49.460Z,101598.23
2018-08-11T16:39:20.429Z,101604.31
2018-08-11T16:41:53.502Z,101616.16
2018-08-11T16:44:24.646Z,101611.74
2018-08-11T17:00:18.363Z,101622.19
2018-08-11T17:02:49.706Z,101618.23
2018-08-11T17:05:19.956Z,101620.25
2018-08-11T17:07:50.553Z,101620.25
2018-08-11T17:10:21.186Z,101617.50
2018-08-11T17:12:52.994Z,101630.73
2018-08-11T17:15:24.543Z,101628.31
2018-08-11T17:17:56.540Z,101628.21
2018-08-11T17:20:27.169Z,101632.83
2018-08-11T17:22:58.242Z,101631.18
2018-08-11T17:28:21.313Z,101624.69
2018-08-11T17:30:51.834Z,101619.38
2018-08-11T17:33:23.273Z,101626.95
2018-08-11T17:35:54.711Z,101635.18
2018-08-11T17:38:26.399Z,101635.26
2018-08-11T17:40:59.729Z,101644.14
2018-08-11T17:51:36.795Z,101656.06
2018-08-11T17:54:10.003Z,101659.27
2018-08-11T17:56:42.579Z,101662.26
2018-08-11T17:59:18.985Z,101663.22
2018-08-11T18:01:57.051Z,101662.45
2018-08-11T18:04:31.080Z,101657.40
2018-08-11T18:07:02.952Z,101672.45
2018-08-11T18:09:37.168Z,101670.30
2018-08-11T18:12:13.591Z,101676.36
2018-08-11T18:14:50.103Z,101678.63
2018-08-11T18:20:14.172Z,101682.15
2018-08-11T18:22:49.021Z,101684.65
2018-08-11T18:25:22.009Z,101680.89
2018-08-11T18:27:53.648Z,101687.91
2018-08-11T18:30:36.938Z,101690.42
2018-08-11T18:33:13.956Z,101684.29
2018-08-11T18:35:46.528Z,101687.30
2018-08-11T18:38:17.956Z,101683.33
2018-08-11T18:40:49.292Z,101685.94
2018-08-11T18:43:21.961Z,101685.42
2018-08-11T18:48:38.088Z,101692.69
2018-08-11T18:51:13.965Z,101691.05
2018-08-11T18:53:45.929Z,101697.77
2018-08-11T18:56:18.705Z,101695.49
2018-08-11T18:58:50.052Z,101698.97
2018-08-11T19:01:36.167Z,101704.17
2018-08-11T19:04:18.489Z,101707.19
2018-08-11T19:06:49.220Z,101707.28
2018-08-11T19:09:19.475Z,101711.41
2018-08-11T19:11:50.916Z,101709.35
2018-08-11T19:14:22.439Z,101706.19
2018-08-11T19:16:55.321Z,101712.98
2018-08-11T19:19:27.079Z,101715.16
2018-08-11T19:22:00.571Z,101713.75
2018-08-11T19:24:39.181Z,101715.20
2018-08-11T19:27:09.999Z,101714.95
2018-08-11T19:29:41.983Z,101719.87
2018-08-11T19:32:16.816Z,101728.70
2018-08-11T19:34:47.494Z,101728.16
2018-08-11T19:37:18.172Z,101722.63
2018-08-11T19:39:52.251Z,101727.46
2018-08-11T19:42:23.320Z,101727.44
2018-08-11T19:44:54.201Z,101735.32
2018-08-11T19:47:25.707Z,101738.35
2018-08-11T19:49:58.074Z,101736.91
2018-08-11T19:52:28.290Z,101746.61
2018-08-11T19:55:00.453Z,101747.28
2018-08-11T19:57:32.372Z,101750.30
2018-08-11T20:00:03.036Z,101749.04
2018-08-11T20:02:34.937Z,101750.72
2018-08-11T20:05:12.044Z,101750.34
2018-08-11T20:07:50.004Z,101749.77
2018-08-11T20:10:25.649Z,101751.03
2018-08-11T20:12:56.331Z,101756.39
2018-08-11T20:15:27.323Z,101754.54
2018-08-11T20:17:59.459Z,101750.53
2018-08-11T20:20:30.382Z,101752.86
2018-08-11T20:23:01.172Z,101749.63
2018-08-11T20:25:33.601Z,101754.94
2018-08-11T20:28:04.409Z,101753.81
2018-08-11T20:30:50.731Z,101753.46
2018-08-11T20:33:24.802Z,101762.20
2018-08-11T20:35:55.891Z,101749.77
2018-08-11T20:38:28.406Z,101749.31
2018-08-11T20:40:58.785Z,101755.76
2018-08-11T20:43:28.988Z,101751.39
2018-08-11T20:45:59.833Z,101750.12
2018-08-11T20:48:32.444Z,101752.28
2018-08-11T20:51:06.630Z,101748.37
2018-08-11T20:53:37.814Z,101749.27
2018-08-11T20:56:11.458Z,101751.11
2018-08-11T20:58:43.641Z,101752.46
2018-08-11T21:01:15.579Z,101757.92
2018-08-11T21:03:46.229Z,101753.73
2018-08-11T21:06:17.310Z,101754.59
2018-08-11T21:08:51.857Z,101746.30
2018-08-11T21:11:22.773Z,101754.45
2018-08-11T21:13:53.692Z,101758.87
2018-08-11T21:16:24.071Z,101759.91
2018-08-11T21:18:55.221Z,101753.78
2018-08-11T21:21:27.956Z,101757.47
2018-08-11T21:24:04.494Z,101759.70
2018-08-11T21:26:34.782Z,101754.45
2018-08-11T21:29:05.887Z,101755.50
2018-08-11T21:31:36.518Z,101758.75
2018-08-11T21:34:11.966Z,101756.30
2018-08-11T21:36:45.346Z,101755.33
2018-08-11T21:39:19.090Z,101755.48
2018-08-11T21:41:49.391Z,101763.90
2018-08-11T21:44:19.650Z,101760.67
2018-08-11T21:46:50.106Z,101758.05
2018-08-11T21:49:22.207Z,101759.77
2018-08-11T21:51:52.641Z,101754.00
2018-08-11T21:54:23.830Z,101754.77
2018-08-11T21:56:57.119Z,101745.16
2018-08-11T21:59:31.922Z,101752.16
2018-08-11T22:02:02.402Z,101756.78
2018-08-11T22:04:36.691Z,101753.09
2018-08-11T22:07:08.265Z,101749.67
2018-08-11T22:09:39.169Z,101748.17
2018-08-11T22:12:11.596Z,101744.93
2018-08-11T22:14:43.572Z,101744.30
2018-08-11T22:17:13.827Z,101741.11
2018-08-11T22:19:45.722Z,101740.84
2018-08-11T22:22:15.925Z,101738.64
2018-08-11T22:24:46.336Z,101741.60
2018-08-11T22:27:17.897Z,101742.78
2018-08-11T22:29:50.280Z,101749.60
2018-08-11T22:32:22.960Z,101744.12
2018-08-11T22:34:54.305Z,101740.96
2018-08-11T22:37:28.389Z,101736.27
2018-08-11T22:40:00.091Z,101738.97
2018-08-11T22:42:33.055Z,101736.27
2018-08-11T22:50:02.552Z,101736.67
2018-08-11T22:52:32.919Z,101734.45
2018-08-11T22:55:03.207Z,101738.02
2018-08-11T22:57:35.510Z,101740.61
2018-08-11T23:00:14.606Z,101728.33
2018-08-11T23:02:47.262Z,101725.30
2018-08-11T23:05:22.020Z,101731.55
2018-08-11T23:07:52.570Z,101730.86
2018-08-11T23:10:24.846Z,101723.48
2018-08-11T23:12:55.566Z,101723.55
2018-08-11T23:15:25.772Z,101729.24
2018-08-11T23:17:59.345Z,101714.80
2018-08-11T23:20:29.983Z,101720.81
2018-08-11T23:23:00.815Z,101726.25
2018-08-11T23:25:33.049Z,101721.43
2018-08-11T23:28:04.741Z,101710.96
2018-08-11T23:30:35.745Z,101712.22
2018-08-11T23:33:10.953Z,101714.42
2018-08-11T23:35:41.163Z,101711.58
2018-08-11T23:38:11.442Z,101713.09
2018-08-11T23:40:41.878Z,101706.91
2018-08-11T23:43:14.219Z,101696.41
2018-08-11T23:45:46.856Z,101703.50
2018-08-11T23:48:19.654Z,101706.17
2018-08-11T23:50:52.409Z,101703.19
2018-08-11T23:53:25.952Z,101699.52
2018-08-11T23:55:56.853Z,101697.18
2018-08-11T23:58:30.670Z,101694.85
